createdAt,value
2018-01-02T00:00:36.286Z,5.15
2018-01-02T00:01:38.734Z,4.50
2018-01-02T00:02:41.193Z,5.60
2018-01-02T00:03:43.656Z,4.82
2018-01-02T00:04:46.144Z,5.07
2018-01-02T00:05:48.604Z,5.00
2018-01-02T00:06:51.048Z,5.40
2018-01-02T00:07:53.503Z,5.28
2018-01-02T00:08:55.954Z,5.18
2018-01-02T00:09:58.422Z,5.32
2018-01-02T00:11:00.874Z,5.03
2018-01-02T00:12:03.335Z,5.07
2018-01-02T00:13:05.777Z,4.50
2018-01-02T00:14:08.221Z,4.70
2018-01-02T00:15:10.696Z,4.75
2018-01-02T00:16:13.146Z,4.65
2018-01-02T00:17:15.611Z,4.68
2018-01-02T00:18:18.062Z,4.70
2018-01-02T00:19:20.529Z,5.20
2018-01-02T00:20:23.006Z,4.10
2018-01-02T00:21:25.450Z,4.80
2018-01-02T00:22:27.912Z,3.95
2018-01-02T00:23:30.357Z,4.35
2018-01-02T00:24:32.838Z,4.45
2018-01-02T00:25:35.301Z,4.47
2018-01-02T00:26:37.812Z,4.72
2018-01-02T00:27:40.254Z,5.05
2018-01-02T00:28:42.712Z,5.20
2018-01-02T00:29:45.161Z,4.85
2018-01-02T00:30:47.645Z,5.03
2018-01-02T00:31:50.090Z,5.22
2018-01-02T00:32:52.554Z,5.75
2018-01-02T00:33:54.997Z,5.43
2018-01-02T00:34:57.446Z,5.15
2018-01-02T00:35:59.894Z,5.90
2018-01-02T00:37:02.360Z,5.97
2018-01-02T00:38:04.810Z,5.90
2018-01-02T00:39:07.271Z,6.37
2018-01-02T00:40:09.752Z,6.18
2018-01-02T00:41:12.198Z,6.62
2018-01-02T00:42:14.668Z,6.62
2018-01-02T00:43:17.117Z,5.90
2018-01-02T00:44:19.558Z,6.45
2018-01-02T00:45:22.040Z,6.50
2018-01-02T00:46:24.505Z,6.35
2018-01-02T00:47:26.968Z,6.70
2018-01-02T00:48:29.531Z,6.70
2018-01-02T00:49:31.981Z,7.55
2018-01-02T00:50:34.464Z,7.30
2018-01-02T00:51:36.913Z,7.03
2018-01-02T00:52:39.366Z,8.30
2018-01-02T00:53:41.878Z,8.73
2018-01-02T00:54:44.329Z,8.23
2018-01-02T00:55:46.824Z,7.45
2018-01-02T00:56:49.289Z,7.53
2018-01-02T00:57:51.764Z,8.80
2018-01-02T00:58:54.213Z,8.35
2018-01-02T00:59:56.657Z,7.35
2018-01-02T01:00:59.144Z,6.90
2018-01-02T01:02:01.622Z,7.55
2018-01-02T01:03:04.096Z,7.35
2018-01-02T01:04:06.541Z,7.10
2018-01-02T01:05:08.991Z,7.20
2018-01-02T01:06:11.579Z,7.55
2018-01-02T01:07:14.038Z,7.28
2018-01-02T01:08:16.490Z,8.55
2018-01-02T01:09:18.956Z,8.40
2018-01-02T01:10:21.401Z,7.87
2018-01-02T01:11:23.886Z,7.40
2018-01-02T01:12:26.352Z,8.15
2018-01-02T01:13:28.801Z,8.90
2018-01-02T01:14:31.253Z,9.68
2018-01-02T01:15:33.719Z,8.40
2018-01-02T01:16:36.203Z,9.30
2018-01-02T01:17:38.657Z,9.70
2018-01-02T01:18:41.124Z,9.15
2018-01-02T01:19:43.603Z,8.90
2018-01-02T01:20:46.064Z,9.10
2018-01-02T01:21:48.539Z,8.15
2018-01-02T01:22:51.012Z,9.00
2018-01-02T01:23:53.476Z,9.55
2018-01-02T01:24:55.931Z,9.77
2018-01-02T01:25:58.402Z,9.25
2018-01-02T01:27:00.873Z,9.05
2018-01-02T01:28:03.946Z,8.75
2018-01-02T01:29:06.417Z,10.32
2018-01-02T01:30:08.884Z,9.00
2018-01-02T01:31:11.349Z,9.68
2018-01-02T01:32:13.813Z,10.05
2018-01-02T01:33:16.261Z,9.13
2018-01-02T01:34:18.706Z,9.57
2018-01-02T01:35:21.161Z,10.35
2018-01-02T01:36:23.632Z,10.02
2018-01-02T01:37:26.147Z,10.02
2018-01-02T01:38:28.595Z,9.38
2018-01-02T01:39:31.046Z,9.77
2018-01-02T01:40:33.503Z,10.25
2018-01-02T01:41:35.979Z,10.48
2018-01-02T01:42:38.480Z,11.27
2018-01-02T01:43:40.950Z,10.70
2018-01-02T01:44:43.406Z,10.63
2018-01-02T01:45:45.857Z,10.43
2018-01-02T01:46:48.328Z,10.50
2018-01-02T01:47:50.815Z,10.30
2018-01-02T01:48:55.029Z,9.45
2018-01-02T01:49:57.495Z,9.82
2018-01-02T01:50:59.964Z,9.70
2018-01-02T01:52:02.417Z,10.23
2018-01-02T01:53:04.899Z,10.32
2018-01-02T01:54:07.350Z,10.20
2018-01-02T01:55:09.797Z,9.60
2018-01-02T01:56:12.272Z,9.23
2018-01-02T01:57:14.735Z,10.23
2018-01-02T01:58:17.217Z,10.10
2018-01-02T01:59:19.669Z,10.73
2018-01-02T02:00:22.135Z,10.18
2018-01-02T02:01:24.600Z,10.75
2018-01-02T02:02:27.054Z,8.73
2018-01-02T02:03:29.529Z,10.23
2018-01-02T02:04:32.000Z,10.63
2018-01-02T02:05:34.454Z,10.30
2018-01-02T02:06:36.909Z,10.63
2018-01-02T02:07:39.359Z,9.90
2018-01-02T02:08:41.829Z,9.32
2018-01-02T02:09:44.282Z,9.10
2018-01-02T02:10:46.747Z,9.95
2018-01-02T02:11:49.209Z,9.60
2018-01-02T02:12:51.672Z,10.60
2018-01-02T02:13:54.157Z,9.35
2018-01-02T02:14:56.620Z,9.32
2018-01-02T02:15:59.083Z,8.55
2018-01-02T02:17:01.545Z,8.40
2018-01-02T02:18:04.013Z,8.57
2018-01-02T02:19:06.487Z,8.65
2018-01-02T02:20:08.947Z,8.88
2018-01-02T02:21:11.393Z,8.98
2018-01-02T02:22:13.856Z,8.38
2018-01-02T02:23:16.297Z,7.22
2018-01-02T02:24:18.766Z,7.78
2018-01-02T02:25:21.231Z,9.15
2018-01-02T02:26:23.695Z,9.18
2018-01-02T02:27:26.149Z,7.80
2018-01-02T02:28:28.601Z,7.70
2018-01-02T02:29:31.070Z,8.07
2018-01-02T02:30:33.522Z,7.05
2018-01-02T02:31:35.988Z,7.32
2018-01-02T02:32:38.440Z,7.60
2018-01-02T02:33:40.906Z,6.80
2018-01-02T02:34:43.400Z,7.10
2018-01-02T02:35:45.853Z,7.50
2018-01-02T02:36:48.315Z,7.70
2018-01-02T02:37:50.781Z,7.62
2018-01-02T02:38:53.248Z,7.35
2018-01-02T02:39:55.723Z,8.18
2018-01-02T02:41:06.950Z,7.35
2018-01-02T02:42:09.400Z,7.05
2018-01-02T02:43:11.861Z,7.90
2018-01-02T02:44:14.324Z,7.68
2018-01-02T02:45:16.797Z,7.65
2018-01-02T02:46:19.255Z,7.50
2018-01-02T02:47:21.731Z,7.90
2018-01-02T02:48:24.195Z,7.85
2018-01-02T02:49:26.659Z,6.82
2018-01-02T02:50:29.140Z,7.57
2018-01-02T02:51:31.615Z,7.30
2018-01-02T02:52:34.067Z,7.03
2018-01-02T02:53:36.536Z,8.50
2018-01-02T02:54:39.002Z,7.35
2018-01-02T02:55:41.478Z,7.37
2018-01-02T02:56:43.940Z,7.18
2018-01-02T02:57:46.409Z,8.50
2018-01-02T02:58:48.872Z,7.95
2018-01-02T02:59:51.352Z,8.20
2018-01-02T03:00:53.859Z,8.93
2018-01-02T03:01:56.310Z,7.10
2018-01-02T03:02:58.757Z,7.53
2018-01-02T03:04:01.201Z,6.28
2018-01-02T03:05:03.663Z,6.30
2018-01-02T03:06:06.143Z,5.43
2018-01-02T03:07:08.607Z,5.78
2018-01-02T03:08:11.069Z,5.40
2018-01-02T03:09:13.523Z,4.80
2018-01-02T03:10:15.976Z,5.37
2018-01-02T03:11:18.464Z,4.95
2018-01-02T03:12:20.928Z,5.18
2018-01-02T03:13:23.374Z,5.70
2018-01-02T03:14:25.822Z,4.68
2018-01-02T03:15:28.280Z,5.10
2018-01-02T03:16:30.750Z,5.32
2018-01-02T03:17:33.214Z,4.60
2018-01-02T03:18:35.671Z,4.45
2018-01-02T03:19:38.140Z,4.97
2018-01-02T03:20:40.585Z,4.80
2018-01-02T03:21:43.050Z,4.50
2018-01-02T03:22:45.494Z,4.60
2018-01-02T03:23:47.938Z,4.47
2018-01-02T03:24:50.400Z,3.53
2018-01-02T03:25:52.873Z,3.90
2018-01-02T03:26:55.352Z,4.90
2018-01-02T03:27:57.819Z,4.37
2018-01-02T03:29:00.284Z,4.82
2018-01-02T03:30:02.749Z,4.40
2018-01-02T03:31:05.202Z,4.80
2018-01-02T03:32:07.674Z,5.75
2018-01-02T03:33:10.120Z,4.60
2018-01-02T03:34:12.570Z,4.95
2018-01-02T03:35:15.036Z,4.43
2018-01-02T03:36:17.477Z,4.97
2018-01-02T03:37:19.963Z,4.78
2018-01-02T03:38:22.433Z,4.10
2018-01-02T03:39:24.886Z,3.15
2018-01-02T03:40:27.348Z,2.40
2018-01-02T03:41:29.797Z,2.67
2018-01-02T03:42:32.269Z,3.50
2018-01-02T03:43:34.717Z,3.05
2018-01-02T03:44:37.163Z,2.35
2018-01-02T03:45:39.617Z,2.42
2018-01-02T03:46:42.062Z,2.30
2018-01-02T03:47:44.552Z,2.10
2018-01-02T03:48:46.993Z,1.90
2018-01-02T03:49:49.435Z,2.25
2018-01-02T03:50:51.882Z,1.90
2018-01-02T03:51:54.376Z,2.10
2018-01-02T03:52:56.859Z,2.08
2018-01-02T03:53:59.320Z,2.72
2018-01-02T03:55:01.771Z,2.55
2018-01-02T03:56:04.213Z,2.85
2018-01-02T03:57:06.658Z,2.55
2018-01-02T03:58:09.140Z,3.00
2018-01-02T03:59:11.600Z,3.00
2018-01-02T04:00:14.068Z,3.12
2018-01-02T04:01:16.513Z,3.53
2018-01-02T04:02:18.992Z,2.47
2018-01-02T04:03:21.480Z,4.30
2018-01-02T04:04:24.245Z,3.97
2018-01-02T04:05:26.707Z,3.47
2018-01-02T04:06:29.164Z,3.40
2018-01-02T04:07:31.605Z,2.47
2018-01-02T04:08:34.078Z,2.35
2018-01-02T04:09:36.529Z,2.60
2018-01-02T04:10:38.992Z,2.45
2018-01-02T04:11:41.435Z,2.55
2018-01-02T04:12:43.896Z,3.40
2018-01-02T04:13:46.384Z,2.53
2018-01-02T04:14:48.863Z,2.95
2018-01-02T04:15:51.319Z,2.45
2018-01-02T04:16:53.771Z,2.72
2018-01-02T04:17:56.325Z,2.17
2018-01-02T04:18:58.790Z,2.62
2018-01-02T04:20:01.241Z,3.08
2018-01-02T04:21:03.690Z,2.42
2018-01-02T04:22:06.134Z,2.62
2018-01-02T04:23:08.577Z,2.95
2018-01-02T04:24:11.055Z,3.15
2018-01-02T04:25:13.520Z,2.85
2018-01-02T04:26:15.984Z,2.70
2018-01-02T04:27:18.447Z,2.10
2018-01-02T04:28:20.912Z,2.55
2018-01-02T04:29:23.391Z,2.58
2018-01-02T04:30:25.841Z,3.00
2018-01-02T04:31:28.293Z,3.17
2018-01-02T04:32:30.746Z,3.20
2018-01-02T04:33:33.211Z,3.10
2018-01-02T04:34:35.692Z,2.90
2018-01-02T04:35:38.141Z,2.45
2018-01-02T04:36:40.589Z,2.70
2018-01-02T04:37:43.070Z,3.00
2018-01-02T04:38:45.532Z,3.03
2018-01-02T04:39:48.024Z,3.47
2018-01-02T04:40:50.473Z,3.00
2018-01-02T04:41:52.922Z,3.33
2018-01-02T04:42:55.372Z,3.10
2018-01-02T04:43:57.833Z,3.30
2018-01-02T04:45:00.309Z,2.97
2018-01-02T04:46:02.758Z,3.60
2018-01-02T04:47:05.201Z,3.42
2018-01-02T04:48:07.649Z,4.03
2018-01-02T04:49:10.113Z,2.83
2018-01-02T04:50:12.578Z,3.30
2018-01-02T04:51:15.044Z,3.55
2018-01-02T04:52:17.493Z,3.50
2018-01-02T04:53:19.939Z,3.78
2018-01-02T04:54:22.382Z,3.60
2018-01-02T04:55:24.859Z,3.83
2018-01-02T04:56:27.343Z,3.70
2018-01-02T04:57:29.804Z,3.83
2018-01-02T04:58:32.268Z,3.47
2018-01-02T04:59:34.728Z,3.95
2018-01-02T05:00:37.220Z,3.83
2018-01-02T05:01:39.684Z,3.80
2018-01-02T05:02:42.152Z,3.65
2018-01-02T05:03:44.594Z,4.15
2018-01-02T05:04:47.069Z,4.18
2018-01-02T05:05:49.537Z,3.95
2018-01-02T05:06:52.008Z,4.30
2018-01-02T05:07:54.462Z,4.32
2018-01-02T05:08:56.905Z,4.25
2018-01-02T05:09:59.349Z,3.85
2018-01-02T05:11:01.828Z,4.45
2018-01-02T05:12:04.282Z,5.07
2018-01-02T05:13:06.748Z,4.60
2018-01-02T05:14:09.194Z,4.80
2018-01-02T05:15:11.655Z,4.65
2018-01-02T05:16:14.130Z,4.35
2018-01-02T05:17:16.591Z,5.22
2018-01-02T05:18:19.038Z,4.72
2018-01-02T05:19:21.511Z,5.40
2018-01-02T05:20:23.975Z,5.22
2018-01-02T05:21:26.461Z,5.30
2018-01-02T05:22:28.906Z,5.60
2018-01-02T05:23:31.345Z,5.68
2018-01-02T05:24:33.812Z,5.68
2018-01-02T05:25:36.273Z,5.68
2018-01-02T05:26:38.737Z,6.50
2018-01-02T05:27:41.204Z,6.07
2018-01-02T05:28:43.667Z,6.40
2018-01-02T05:29:46.114Z,6.68
2018-01-02T05:30:48.557Z,7.35
2018-01-02T05:31:51.022Z,6.97
2018-01-02T05:32:53.466Z,7.43
2018-01-02T05:33:55.932Z,7.22
2018-01-02T05:34:58.396Z,7.30
2018-01-02T05:36:00.861Z,7.00
2018-01-02T05:37:03.329Z,7.90
2018-01-02T05:38:05.792Z,7.25
2018-01-02T05:39:08.252Z,8.48
2018-01-02T05:40:10.698Z,7.60
2018-01-02T05:41:13.154Z,8.88
2018-01-02T05:42:15.632Z,8.00
2018-01-02T05:43:18.081Z,8.18
2018-01-02T05:44:20.540Z,7.40
2018-01-02T05:45:22.981Z,8.40
2018-01-02T05:46:25.452Z,7.75
2018-01-02T05:47:27.919Z,7.68
2018-01-02T05:48:30.370Z,7.18
2018-01-02T05:49:32.814Z,6.97
2018-01-02T05:50:35.275Z,6.75
2018-01-02T05:51:37.739Z,7.30
2018-01-02T05:52:40.224Z,7.22
2018-01-02T05:53:42.671Z,6.95
2018-01-02T05:54:45.131Z,6.35
2018-01-02T05:55:47.592Z,7.15
2018-01-02T05:56:50.058Z,6.90
2018-01-02T05:57:52.564Z,6.62
2018-01-02T05:58:55.014Z,7.72
2018-01-02T05:59:57.483Z,7.00
2018-01-02T06:00:59.929Z,7.60
2018-01-02T06:02:02.392Z,6.95
2018-01-02T06:03:04.858Z,7.60
2018-01-02T06:04:07.302Z,7.68
2018-01-02T06:05:09.760Z,6.50
2018-01-02T06:06:12.608Z,6.50
2018-01-02T06:07:15.072Z,7.78
2018-01-02T06:08:17.592Z,7.35
2018-01-02T06:09:20.046Z,7.90
2018-01-02T06:10:22.494Z,8.75
2018-01-02T06:11:24.946Z,9.70
2018-01-02T06:12:27.397Z,8.82
2018-01-02T06:13:29.880Z,8.80
2018-01-02T06:14:32.334Z,8.90
2018-01-02T06:15:34.812Z,9.30
2018-01-02T06:16:37.276Z,9.40
2018-01-02T06:17:39.725Z,9.35
2018-01-02T06:18:42.207Z,8.35
2018-01-02T06:19:44.676Z,9.55
2018-01-02T06:20:47.140Z,9.07
2018-01-02T06:21:49.594Z,8.85
2018-01-02T06:22:52.060Z,10.00
2018-01-02T06:23:54.535Z,8.80
2018-01-02T06:24:57.016Z,13.65
2018-01-02T06:25:59.485Z,12.43
2018-01-02T06:27:01.984Z,10.75
2018-01-02T06:28:04.439Z,10.48
2018-01-02T06:29:06.902Z,9.38
2018-01-02T06:30:09.354Z,9.48
2018-01-02T06:31:11.829Z,9.73
2018-01-02T06:32:14.292Z,9.45
2018-01-02T06:33:16.756Z,9.57
2018-01-02T06:34:19.249Z,10.15
2018-01-02T06:35:21.716Z,9.65
2018-01-02T06:36:24.169Z,9.77
2018-01-02T06:37:26.639Z,9.73
2018-01-02T06:38:29.105Z,10.30
2018-01-02T06:39:31.578Z,9.60
2018-01-02T06:40:34.032Z,9.75
2018-01-02T06:41:36.505Z,10.02
2018-01-02T06:42:38.950Z,8.77
2018-01-02T06:43:41.459Z,9.15
2018-01-02T06:44:43.934Z,9.80
2018-01-02T06:45:46.399Z,8.25
2018-01-02T06:46:48.868Z,9.65
2018-01-02T06:47:51.332Z,9.13
2018-01-02T06:48:53.782Z,9.73
2018-01-02T06:49:56.264Z,9.55
2018-01-02T06:50:58.724Z,7.50
2018-01-02T06:52:01.173Z,8.45
2018-01-02T06:53:03.626Z,7.47
2018-01-02T06:54:06.082Z,7.40
2018-01-02T06:55:08.550Z,8.32
2018-01-02T06:56:11.007Z,7.43
2018-01-02T06:57:13.469Z,7.60
2018-01-02T06:58:15.933Z,7.03
2018-01-02T06:59:18.382Z,7.65
2018-01-02T07:00:20.885Z,7.03
2018-01-02T07:01:23.350Z,7.20
2018-01-02T07:02:25.855Z,6.55
2018-01-02T07:03:28.298Z,6.68
2018-01-02T07:04:30.763Z,6.93
2018-01-02T07:05:33.246Z,6.65
2018-01-02T07:06:35.703Z,7.50
2018-01-02T07:07:38.172Z,7.30
2018-01-02T07:08:40.632Z,6.45
2018-01-02T07:09:43.082Z,6.65
2018-01-02T07:10:45.552Z,6.60
2018-01-02T07:11:48.014Z,6.75
2018-01-02T07:12:50.457Z,5.95
2018-01-02T07:13:52.907Z,6.28
2018-01-02T07:14:55.380Z,6.40
2018-01-02T07:15:57.862Z,6.25
2018-01-02T07:17:00.336Z,5.10
2018-01-02T07:18:03.530Z,5.65
2018-01-02T07:19:05.978Z,6.05
2018-01-02T07:20:08.440Z,5.47
2018-01-02T07:21:10.987Z,6.05
2018-01-02T07:22:13.450Z,6.18
2018-01-02T07:23:15.915Z,6.28
2018-01-02T07:24:18.376Z,6.40
2018-01-02T07:25:21.352Z,6.28
2018-01-02T07:26:23.840Z,6.32
2018-01-02T07:27:26.285Z,6.65
2018-01-02T07:28:28.743Z,6.03
2018-01-02T07:29:31.204Z,6.15
2018-01-02T07:30:33.672Z,6.22
2018-01-02T07:31:36.137Z,6.25
2018-01-02T07:32:38.657Z,6.82
2018-01-02T07:33:41.120Z,7.30
2018-01-02T07:34:43.684Z,8.40
2018-01-02T07:35:46.223Z,7.68
2018-01-02T07:36:48.697Z,8.23
2018-01-02T07:37:51.168Z,9.00
2018-01-02T07:38:53.627Z,8.55
2018-01-02T07:39:56.092Z,8.45
2018-01-02T07:40:58.542Z,7.80
2018-01-02T07:42:01.024Z,9.02
2018-01-02T07:43:03.488Z,9.50
2018-01-02T07:44:05.942Z,10.57
2018-01-02T07:45:08.393Z,8.55
2018-01-02T07:46:10.842Z,9.02
2018-01-02T07:47:13.372Z,9.00
2018-01-02T07:48:15.833Z,8.43
2018-01-02T07:49:18.294Z,11.30
2018-01-02T07:50:20.764Z,8.82
2018-01-02T07:51:23.231Z,8.40
2018-01-02T07:52:25.701Z,10.18
2018-01-02T07:53:28.149Z,7.95
2018-01-02T07:54:30.626Z,8.18
2018-01-02T07:55:33.096Z,9.55
2018-01-02T07:56:35.567Z,7.43
2018-01-02T07:57:38.056Z,9.68
2018-01-02T07:58:40.515Z,9.13
2018-01-02T07:59:43.068Z,8.98
2018-01-02T08:00:45.522Z,7.65
2018-01-02T08:01:47.992Z,9.00
2018-01-02T08:02:50.472Z,8.75
2018-01-02T08:03:52.944Z,7.00
2018-01-02T08:04:55.420Z,8.23
2018-01-02T08:05:57.887Z,8.38
2018-01-02T08:07:00.348Z,7.50
2018-01-02T08:08:02.837Z,7.62
2018-01-02T08:09:05.309Z,6.97
2018-01-02T08:10:07.763Z,9.68
2018-01-02T08:11:10.231Z,8.02
2018-01-02T08:12:12.697Z,7.50
2018-01-02T08:13:15.173Z,7.65
2018-01-02T08:14:17.683Z,7.62
2018-01-02T08:15:20.145Z,7.03
2018-01-02T08:16:22.602Z,7.72
2018-01-02T08:17:25.089Z,8.60
2018-01-02T08:18:27.596Z,7.72
2018-01-02T08:19:30.076Z,7.35
2018-01-02T08:20:32.560Z,7.60
2018-01-02T08:21:35.036Z,6.30
2018-01-02T08:22:37.506Z,7.18
2018-01-02T08:23:39.999Z,5.35
2018-01-02T08:24:42.453Z,5.20
2018-01-02T08:25:44.944Z,6.25
2018-01-02T08:26:47.408Z,5.85
2018-01-02T08:27:49.862Z,5.00
2018-01-02T08:28:52.335Z,5.75
2018-01-02T08:29:54.824Z,6.00
2018-01-02T08:30:57.282Z,5.40
2018-01-02T08:31:59.739Z,4.82
2018-01-02T08:33:02.202Z,5.97
2018-01-02T08:34:04.678Z,5.55
2018-01-02T08:35:07.134Z,4.78
2018-01-02T08:36:09.599Z,4.68
2018-01-02T08:37:12.074Z,5.55
2018-01-02T08:38:14.522Z,4.30
2018-01-02T08:39:17.003Z,3.85
2018-01-02T08:40:19.464Z,3.72
2018-01-02T08:41:21.935Z,3.05
2018-01-02T08:42:24.396Z,3.70
2018-01-02T08:43:26.860Z,3.58
2018-01-02T08:44:29.348Z,3.92
2018-01-02T08:45:31.821Z,3.62
2018-01-02T08:46:34.285Z,3.15
2018-01-02T08:47:36.754Z,3.92
2018-01-02T08:48:39.215Z,3.05
2018-01-02T08:49:41.695Z,3.60
2018-01-02T08:50:44.151Z,2.15
2018-01-02T08:51:46.602Z,2.42
2018-01-02T08:52:49.069Z,2.87
2018-01-02T08:53:51.539Z,2.80
2018-01-02T08:54:54.036Z,3.17
2018-01-02T08:55:56.485Z,2.35
2018-01-02T08:56:58.956Z,2.60
2018-01-02T08:58:01.691Z,2.62
2018-01-02T08:59:04.201Z,2.22
2018-01-02T09:00:06.674Z,2.53
2018-01-02T09:01:09.151Z,2.12
2018-01-02T09:02:11.672Z,2.20
2018-01-02T09:03:14.136Z,2.58
2018-01-02T09:04:16.600Z,2.90
2018-01-02T09:05:19.070Z,2.85
2018-01-02T09:06:21.543Z,2.50
2018-01-02T09:07:24.004Z,2.08
2018-01-02T09:08:26.467Z,2.60
2018-01-02T09:09:28.927Z,2.83
2018-01-02T09:10:31.412Z,1.80
2018-01-02T09:11:33.857Z,2.20
2018-01-02T09:12:48.928Z,2.33
2018-01-02T09:13:57.110Z,2.47
2018-01-02T09:14:59.558Z,1.90
2018-01-02T09:16:02.030Z,2.17
2018-01-02T09:17:04.495Z,2.65
2018-01-02T09:18:06.959Z,2.75
2018-01-02T09:19:09.413Z,1.80
2018-01-02T09:20:11.876Z,2.30
2018-01-02T09:21:14.340Z,2.42
2018-01-02T09:22:16.789Z,2.55
2018-01-02T09:23:19.239Z,2.62
2018-01-02T09:24:21.706Z,1.98
2018-01-02T09:25:24.173Z,2.37
2018-01-02T09:26:26.635Z,2.50
2018-01-02T09:27:29.104Z,3.10
2018-01-02T09:28:31.549Z,2.72
2018-01-02T09:29:33.998Z,2.72
2018-01-02T09:30:36.459Z,3.33
2018-01-02T09:31:38.914Z,3.30
2018-01-02T09:32:41.380Z,3.85
2018-01-02T09:33:43.829Z,2.80
2018-01-02T09:34:46.282Z,2.55
2018-01-02T09:35:48.738Z,2.70
2018-01-02T09:36:51.190Z,3.30
2018-01-02T09:37:53.639Z,2.90
2018-01-02T09:38:56.105Z,2.60
2018-01-02T09:39:58.558Z,2.80
2018-01-02T09:41:01.028Z,3.05
2018-01-02T09:42:03.506Z,3.17
2018-01-02T09:43:05.977Z,2.72
2018-01-02T09:44:08.444Z,3.20
2018-01-02T09:45:10.894Z,2.85
2018-01-02T09:46:13.361Z,2.30
2018-01-02T09:47:15.817Z,3.45
2018-01-02T09:48:18.265Z,4.53
2018-01-02T09:49:20.730Z,3.25
2018-01-02T09:50:23.194Z,3.33
2018-01-02T09:51:25.663Z,4.25
2018-01-02T09:52:28.157Z,3.83
2018-01-02T09:53:30.637Z,4.30
2018-01-02T09:54:33.100Z,3.90
2018-01-02T09:55:35.550Z,4.50
2018-01-02T09:56:38.166Z,4.85
2018-01-02T09:57:40.628Z,4.35
2018-01-02T09:58:43.120Z,4.20
2018-01-02T09:59:45.584Z,4.37
2018-01-02T10:00:48.047Z,4.32
2018-01-02T10:01:50.516Z,4.75
2018-01-02T10:02:52.981Z,3.78
2018-01-02T10:03:55.439Z,4.00
2018-01-02T10:04:57.912Z,4.95
2018-01-02T10:06:00.365Z,4.35
2018-01-02T10:07:02.832Z,4.40
2018-01-02T10:08:05.278Z,4.03
2018-01-02T10:09:10.132Z,3.80
2018-01-02T10:10:12.586Z,4.22
2018-01-02T10:11:15.038Z,5.00
2018-01-02T10:12:17.493Z,4.50
2018-01-02T10:13:19.972Z,4.30
2018-01-02T10:14:22.430Z,4.43
2018-01-02T10:15:24.898Z,3.87
2018-01-02T10:16:27.364Z,4.50
2018-01-02T10:17:29.818Z,4.95
2018-01-02T10:18:32.278Z,5.05
2018-01-02T10:19:34.739Z,4.95
2018-01-02T10:20:37.214Z,5.20
2018-01-02T10:21:39.673Z,4.78
2018-01-02T10:22:42.114Z,5.15
2018-01-02T10:23:44.566Z,5.07
2018-01-02T10:24:47.013Z,5.05
2018-01-02T10:25:49.476Z,4.90
2018-01-02T10:26:51.934Z,4.78
2018-01-02T10:27:54.390Z,4.50
2018-01-02T10:28:56.864Z,4.22
2018-01-02T10:29:59.328Z,4.20
2018-01-02T10:31:01.788Z,4.05
2018-01-02T10:32:04.256Z,4.12
2018-01-02T10:33:06.710Z,3.85
2018-01-02T10:34:09.181Z,4.30
2018-01-02T10:35:11.688Z,4.43
2018-01-02T10:36:14.148Z,4.03
2018-01-02T10:37:17.014Z,4.28
2018-01-02T10:38:19.483Z,4.45
2018-01-02T10:39:21.936Z,4.93
2018-01-02T10:40:24.390Z,4.25
2018-01-02T10:41:26.860Z,5.07
2018-01-02T10:42:29.328Z,5.00
2018-01-02T10:43:31.800Z,3.65
2018-01-02T10:44:34.249Z,4.10
2018-01-02T10:45:36.714Z,5.15
2018-01-02T10:46:39.261Z,4.75
2018-01-02T10:47:41.728Z,5.15
2018-01-02T10:48:44.178Z,4.57
2018-01-02T10:49:46.716Z,4.70
2018-01-02T10:50:49.190Z,4.35
2018-01-02T10:51:51.638Z,3.97
2018-01-02T10:52:54.094Z,4.60
2018-01-02T10:53:56.546Z,4.62
2018-01-02T10:54:59.002Z,4.28
2018-01-02T10:56:01.458Z,4.72
2018-01-02T10:57:03.914Z,4.28
2018-01-02T10:58:06.361Z,4.70
2018-01-02T10:59:08.814Z,4.53
2018-01-02T11:00:11.280Z,3.83
2018-01-02T11:01:19.448Z,3.72
2018-01-02T11:02:21.901Z,3.60
2018-01-02T11:03:24.354Z,3.22
2018-01-02T11:04:26.825Z,3.50
2018-01-02T11:05:29.274Z,3.25
2018-01-02T11:06:31.742Z,3.00
2018-01-02T11:07:34.243Z,3.78
2018-01-02T11:08:36.707Z,3.85
2018-01-02T11:09:39.172Z,3.75
2018-01-02T11:10:44.396Z,4.00
2018-01-02T11:11:52.505Z,3.17
2018-01-02T11:12:54.966Z,3.87
2018-01-02T11:13:57.480Z,3.90
2018-01-02T11:14:59.944Z,3.37
2018-01-02T11:16:02.420Z,2.72
2018-01-02T11:17:04.874Z,2.75
2018-01-02T11:18:07.364Z,3.30
2018-01-02T11:19:09.814Z,2.80
2018-01-02T11:20:12.262Z,2.50
2018-01-02T11:21:14.728Z,2.33
2018-01-02T11:22:17.191Z,4.15
2018-01-02T11:23:19.668Z,3.67
2018-01-02T11:24:22.131Z,3.03
2018-01-02T11:25:24.594Z,3.12
2018-01-02T11:26:27.046Z,2.90
2018-01-02T11:27:29.508Z,2.92
2018-01-02T11:28:31.983Z,3.33
2018-01-02T11:29:34.456Z,3.72
2018-01-02T11:30:36.923Z,2.22
2018-01-02T11:31:41.168Z,3.00
2018-01-02T11:32:43.622Z,2.85
2018-01-02T11:33:46.085Z,2.75
2018-01-02T11:34:48.534Z,3.12
2018-01-02T11:35:52.173Z,2.50
2018-01-02T11:36:54.899Z,1.92
2018-01-02T11:37:57.382Z,3.05
2018-01-02T11:38:59.857Z,2.90
2018-01-02T11:40:02.325Z,1.58
2018-01-02T11:41:04.782Z,1.85
2018-01-02T11:42:07.234Z,2.45
2018-01-02T11:43:09.701Z,3.35
2018-01-02T11:44:12.174Z,4.15
2018-01-02T11:45:14.671Z,3.40
2018-01-02T11:46:17.143Z,2.20
2018-01-02T11:47:19.611Z,1.42
2018-01-02T11:48:22.076Z,2.40
2018-01-02T11:49:24.552Z,2.40
2018-01-02T11:50:27.072Z,1.65
2018-01-02T11:51:29.550Z,2.25
2018-01-02T11:52:32.037Z,2.40
2018-01-02T11:53:34.501Z,2.50
2018-01-02T11:54:36.971Z,2.45
2018-01-02T11:55:39.425Z,2.47
2018-01-02T11:56:41.878Z,2.25
2018-01-02T11:57:44.343Z,2.00
2018-01-02T11:58:46.816Z,1.87
2018-01-02T11:59:49.266Z,2.33
2018-01-02T12:00:51.938Z,2.17
2018-01-02T12:01:54.696Z,2.22
2018-01-02T12:02:57.760Z,1.45
2018-01-02T12:04:00.221Z,2.30
2018-01-02T12:05:02.703Z,2.25
2018-01-02T12:06:05.186Z,1.85
2018-01-02T12:07:07.660Z,2.10
2018-01-02T12:08:10.124Z,3.00
2018-01-02T12:09:12.595Z,2.83
2018-01-02T12:10:15.037Z,2.12
2018-01-02T12:11:17.559Z,1.90
2018-01-02T12:12:20.028Z,2.20
2018-01-02T12:13:22.531Z,1.62
2018-01-02T12:14:25.029Z,1.80
2018-01-02T12:15:27.496Z,1.90
2018-01-02T12:16:30.036Z,1.90
2018-01-02T12:17:32.504Z,2.20
2018-01-02T12:18:34.967Z,2.03
2018-01-02T12:19:37.430Z,2.00
2018-01-02T12:20:39.916Z,1.60
2018-01-02T12:21:42.384Z,1.85
2018-01-02T12:22:44.840Z,1.83
2018-01-02T12:23:47.285Z,1.50
2018-01-02T12:24:49.752Z,2.10
2018-01-02T12:25:52.257Z,2.50
2018-01-02T12:26:54.733Z,2.72
2018-01-02T12:27:57.186Z,1.80
2018-01-02T12:28:59.634Z,2.12
2018-01-02T12:30:02.112Z,2.67
2018-01-02T12:31:04.592Z,2.35
2018-01-02T12:32:07.045Z,2.28
2018-01-02T12:33:09.592Z,1.90
2018-01-02T12:34:12.054Z,2.40
2018-01-02T12:35:14.514Z,2.62
2018-01-02T12:36:16.958Z,3.33
2018-01-02T12:37:19.420Z,2.30
2018-01-02T12:38:21.959Z,2.40
2018-01-02T12:39:24.454Z,2.65
2018-01-02T12:40:26.935Z,1.80
2018-01-02T12:41:29.382Z,2.55
2018-01-02T12:42:31.834Z,2.28
2018-01-02T12:43:34.286Z,2.15
2018-01-02T12:44:36.729Z,2.33
2018-01-02T12:45:39.196Z,3.65
2018-01-02T12:46:41.678Z,2.37
2018-01-02T12:47:44.154Z,2.28
2018-01-02T12:48:46.667Z,3.10
2018-01-02T12:49:49.114Z,2.72
2018-01-02T12:50:51.580Z,3.08
2018-01-02T12:51:54.039Z,3.65
2018-01-02T12:52:56.505Z,3.15
2018-01-02T12:53:58.967Z,3.37
2018-01-02T12:55:01.436Z,2.85
2018-01-02T12:56:03.895Z,5.15
2018-01-02T12:57:06.352Z,3.90
2018-01-02T12:58:08.826Z,3.62
2018-01-02T12:59:11.274Z,3.90
2018-01-02T13:00:13.744Z,3.67
2018-01-02T13:01:16.216Z,2.80
2018-01-02T13:02:18.698Z,2.25
2018-01-02T13:03:21.179Z,2.60
2018-01-02T13:04:23.630Z,2.85
2018-01-02T13:05:26.079Z,3.37
2018-01-02T13:06:28.983Z,2.95
2018-01-02T13:07:31.484Z,2.03
2018-01-02T13:08:33.948Z,2.65
2018-01-02T13:09:36.398Z,2.92
2018-01-02T13:10:38.887Z,3.00
2018-01-02T13:11:41.348Z,2.22
2018-01-02T13:12:43.812Z,2.58
2018-01-02T13:13:46.331Z,2.45
2018-01-02T13:14:48.848Z,2.00
2018-01-02T13:15:51.345Z,3.00
2018-01-02T13:16:53.794Z,1.98
2018-01-02T13:17:56.256Z,2.30
2018-01-02T13:18:58.729Z,2.67
2018-01-02T13:20:01.465Z,2.37
2018-01-02T13:21:03.938Z,1.80
2018-01-02T13:22:06.403Z,2.67
2018-01-02T13:23:08.859Z,3.10
2018-01-02T13:24:11.309Z,3.05
2018-01-02T13:25:13.774Z,2.62
2018-01-02T13:26:16.264Z,2.40
2018-01-02T13:27:18.784Z,2.25
2018-01-02T13:28:21.256Z,2.62
2018-01-02T13:29:23.716Z,1.85
2018-01-02T13:30:26.170Z,1.50
2018-01-02T13:31:28.676Z,1.77
2018-01-02T13:32:31.121Z,1.50
2018-01-02T13:33:33.600Z,1.83
2018-01-02T13:34:36.068Z,2.20
2018-01-02T13:35:38.514Z,4.57
2018-01-02T13:36:40.985Z,1.65
2018-01-02T13:37:43.451Z,1.90
2018-01-02T13:38:45.928Z,1.40
2018-01-02T13:39:48.400Z,1.35
2018-01-02T13:40:50.864Z,2.17
2018-01-02T13:41:53.450Z,2.00
2018-01-02T13:42:56.180Z,1.92
2018-01-02T13:43:58.664Z,2.30
2018-01-02T13:45:01.131Z,2.10
2018-01-02T13:46:03.607Z,1.92
2018-01-02T13:47:06.083Z,2.10
2018-01-02T13:48:08.547Z,2.10
2018-01-02T13:49:11.007Z,2.50
2018-01-02T13:50:13.475Z,2.15
2018-01-02T13:51:15.940Z,1.95